createdAt,value
2023-01-03T00:01:16.525Z,4.40
2023-01-03T00:03:44.820Z,5.65
2023-01-03T00:06:19.105Z,11.70
2023-01-03T00:08:47.685Z,7.10
2023-01-03T00:11:16.815Z,3.70
2023-01-03T00:13:44.470Z,4.97
2023-01-03T00:16:19.348Z,4.85
2023-01-03T00:18:47.896Z,4.35
2023-01-03T00:21:15.929Z,4.03
2023-01-03T00:23:45.457Z,7.03
2023-01-03T00:26:15.694Z,5.57
2023-01-03T00:28:44.216Z,3.83
2023-01-03T00:31:13.906Z,4.78
2023-01-03T00:33:42.217Z,6.57
2023-01-03T00:36:11.535Z,2.60
2023-01-03T00:38:39.870Z,5.80
2023-01-03T00:41:11.836Z,5.28
2023-01-03T00:43:42.657Z,3.20
2023-01-03T00:46:12.414Z,3.33
2023-01-03T00:48:41.014Z,3.83
2023-01-03T00:51:10.543Z,5.05
2023-01-03T00:53:39.736Z,2.33
2023-01-03T00:56:11.491Z,4.05
2023-01-03T00:58:39.751Z,2.80
2023-01-03T01:01:08.812Z,4.70
2023-01-03T01:03:38.344Z,7.55
2023-01-03T01:06:14.659Z,3.58
2023-01-03T01:08:42.944Z,1.63
2023-01-03T01:11:13.277Z,3.88
2023-01-03T01:13:42.085Z,6.95
2023-01-03T01:16:14.169Z,3.50
2023-01-03T01:18:45.195Z,4.78
2023-01-03T01:21:16.802Z,7.18
2023-01-03T01:23:45.077Z,6.60
2023-01-03T01:26:16.800Z,7.53
2023-01-03T01:28:45.027Z,4.57
2023-01-03T01:31:16.814Z,4.78
2023-01-03T01:33:45.715Z,4.75
2023-01-03T01:36:17.637Z,3.25
2023-01-03T01:38:45.812Z,2.97
2023-01-03T01:41:37.465Z,4.20
2023-01-03T01:44:23.041Z,5.80
2023-01-03T01:46:51.639Z,3.90
2023-01-03T01:49:24.717Z,4.30
2023-01-03T01:54:21.276Z,3.40
2023-01-03T01:56:52.341Z,3.88
2023-01-03T01:59:20.435Z,4.47
2023-01-03T02:01:50.367Z,4.38
2023-01-03T02:04:22.792Z,3.33
2023-01-03T02:06:52.116Z,8.60
2023-01-03T02:09:20.566Z,5.50
2023-01-03T02:12:15.269Z,7.72
2023-01-03T02:14:56.017Z,4.45
2023-01-03T02:17:33.665Z,6.00
2023-01-03T02:20:15.393Z,4.63
2023-01-03T02:23:21.251Z,2.85
2023-01-03T02:26:32.319Z,1.55
2023-01-03T02:29:25.674Z,5.47
2023-01-03T02:32:02.743Z,1.33
2023-01-03T02:34:40.624Z,2.92
2023-01-03T02:37:15.595Z,2.22
2023-01-03T02:39:49.751Z,2.22
2023-01-03T02:42:44.347Z,2.45
2023-01-03T02:45:17.714Z,3.33
2023-01-03T02:50:17.273Z,3.92
2023-01-03T02:52:47.396Z,4.78
2023-01-03T02:55:20.276Z,5.15
2023-01-03T02:57:53.377Z,6.05
2023-01-03T03:00:24.969Z,6.68
2023-01-03T03:02:59.549Z,4.53
2023-01-03T03:05:32.681Z,4.80
2023-01-03T03:08:00.709Z,4.05
2023-01-03T03:10:46.794Z,4.97
2023-01-03T03:13:23.519Z,6.45
2023-01-03T03:15:57.463Z,4.85
2023-01-03T03:18:34.618Z,3.95
2023-01-03T03:21:22.931Z,4.93
2023-01-03T03:24:10.265Z,3.50
2023-01-03T03:26:43.134Z,7.93
2023-01-03T03:29:14.932Z,4.03
2023-01-03T03:31:46.468Z,3.95
2023-01-03T03:34:19.396Z,6.72
2023-01-03T03:36:54.969Z,6.18
2023-01-03T03:39:38.303Z,6.70
2023-01-03T03:42:37.109Z,4.60
2023-01-03T03:45:13.532Z,7.57
2023-01-03T03:47:46.579Z,4.30
2023-01-03T03:50:23.548Z,7.78
2023-01-03T03:52:56.163Z,4.10
2023-01-03T03:55:31.584Z,5.72
2023-01-03T03:58:02.955Z,5.18
2023-01-03T04:00:34.749Z,2.80
2023-01-03T04:03:05.765Z,5.38
2023-01-03T04:05:40.604Z,6.13
2023-01-03T04:08:09.014Z,8.05
2023-01-03T04:10:38.427Z,2.38
2023-01-03T04:13:06.981Z,1.73
2023-01-03T04:15:34.957Z,2.40
2023-01-03T04:18:02.947Z,3.92
2023-01-03T04:20:31.010Z,2.85
2023-01-03T04:23:01.916Z,3.35
2023-01-03T04:25:29.806Z,2.80
2023-01-03T04:27:57.998Z,3.33
2023-01-03T04:30:25.941Z,6.20
2023-01-03T04:32:53.852Z,5.40
2023-01-03T04:35:21.761Z,5.38
2023-01-03T04:37:50.041Z,3.25
2023-01-03T04:40:19.291Z,2.92
2023-01-03T04:43:04.814Z,4.15
2023-01-03T04:45:32.868Z,6.28
2023-01-03T04:48:01.265Z,4.93
2023-01-03T04:50:30.603Z,3.38
2023-01-03T04:52:58.625Z,3.33
2023-01-03T04:55:28.027Z,2.40
2023-01-03T04:57:56.003Z,6.72
2023-01-03T05:00:24.144Z,3.65
2023-01-03T05:02:52.027Z,3.42
2023-01-03T05:05:19.899Z,5.20
2023-01-03T05:07:47.827Z,5.45
2023-01-03T05:10:15.845Z,10.13
2023-01-03T05:12:59.798Z,6.07
2023-01-03T05:15:28.045Z,9.60
2023-01-03T05:17:55.966Z,5.60
2023-01-03T05:20:42.476Z,6.68
2023-01-03T05:23:31.232Z,6.53
2023-01-03T05:25:59.963Z,6.13
2023-01-03T05:28:29.983Z,5.65
2023-01-03T05:30:59.217Z,3.67
2023-01-03T05:33:27.945Z,8.50
2023-01-03T05:35:55.854Z,5.55
2023-01-03T05:38:24.058Z,10.27
2023-01-03T05:40:52.284Z,4.63
2023-01-03T05:43:20.153Z,7.25
2023-01-03T05:45:52.652Z,5.18
2023-01-03T05:48:22.092Z,7.43
2023-01-03T05:50:51.000Z,5.88
2023-01-03T05:53:19.174Z,7.15
2023-01-03T05:55:47.072Z,8.75
2023-01-03T05:58:14.990Z,5.47
2023-01-03T06:00:42.861Z,4.15
2023-01-03T06:03:12.296Z,6.20
2023-01-03T06:05:46.134Z,3.25
2023-01-03T06:08:17.698Z,6.50
2023-01-03T06:10:45.689Z,6.28
2023-01-03T06:13:13.753Z,6.90
2023-01-03T06:15:41.662Z,10.32
2023-01-03T06:18:08.546Z,4.57
2023-01-03T06:20:38.202Z,8.25
2023-01-03T06:23:06.890Z,8.65
2023-01-03T06:25:34.802Z,9.38
2023-01-03T06:28:02.714Z,10.52
2023-01-03T06:30:30.696Z,4.93
2023-01-03T06:32:58.589Z,6.85
2023-01-03T06:35:26.455Z,7.32
2023-01-03T06:37:55.674Z,9.82
2023-01-03T06:40:23.520Z,4.38
2023-01-03T06:42:51.486Z,6.45
2023-01-03T06:45:36.849Z,7.70
2023-01-03T06:48:23.817Z,6.57
2023-01-03T06:51:09.957Z,6.63
2023-01-03T06:53:41.547Z,7.75
2023-01-03T06:56:10.036Z,5.15
2023-01-03T06:58:37.911Z,6.82
2023-01-03T07:01:07.509Z,5.30
2023-01-03T07:03:35.497Z,6.50
2023-01-03T07:06:03.385Z,4.43
2023-01-03T07:08:31.216Z,7.45
2023-01-03T07:11:00.452Z,7.72
2023-01-03T07:13:45.689Z,9.18
2023-01-03T07:16:15.616Z,13.93
2023-01-03T07:18:45.931Z,6.55
2023-01-03T07:21:18.662Z,11.65
2023-01-03T07:23:46.529Z,11.80
2023-01-03T07:26:15.829Z,11.57
2023-01-03T07:28:43.727Z,10.45
2023-01-03T07:31:11.657Z,7.50
2023-01-03T07:33:40.383Z,12.73
2023-01-03T07:36:12.177Z,5.88
2023-01-03T07:38:40.937Z,7.03
2023-01-03T07:41:09.588Z,6.90
2023-01-03T07:43:38.975Z,6.95
2023-01-03T07:46:09.125Z,9.38
2023-01-03T07:48:37.517Z,5.78
2023-01-03T07:51:06.220Z,10.07
2023-01-03T07:53:35.893Z,10.60
2023-01-03T07:56:10.922Z,6.57
2023-01-03T07:58:43.676Z,9.13
2023-01-03T08:01:13.850Z,8.27
2023-01-03T08:03:43.075Z,9.20
2023-01-03T08:06:14.793Z,11.20
2023-01-03T08:08:42.946Z,8.70
2023-01-03T08:11:31.829Z,7.05
2023-01-03T08:14:01.448Z,12.05
2023-01-03T08:16:29.349Z,6.35
2023-01-03T08:18:57.219Z,12.13
2023-01-03T08:21:25.105Z,10.80
2023-01-03T08:23:52.969Z,6.15
2023-01-03T08:26:20.943Z,6.80
2023-01-03T08:28:48.821Z,6.25
2023-01-03T08:31:21.107Z,7.43
2023-01-03T08:33:52.911Z,8.70
2023-01-03T08:36:21.897Z,7.63
2023-01-03T08:38:54.249Z,8.15
2023-01-03T08:41:25.796Z,6.73
2023-01-03T08:43:54.416Z,9.85
2023-01-03T08:46:24.140Z,6.88
2023-01-03T08:48:52.257Z,6.00
2023-01-03T08:51:20.122Z,3.42
2023-01-03T08:53:48.010Z,8.30
2023-01-03T08:56:15.810Z,7.15
2023-01-03T08:58:43.658Z,5.97
2023-01-03T09:01:12.086Z,8.45
2023-01-03T09:03:41.785Z,4.78
2023-01-03T09:06:09.886Z,11.77
2023-01-03T09:08:38.532Z,9.98
2023-01-03T09:11:07.392Z,6.78
2023-01-03T09:13:36.163Z,10.07
2023-01-03T09:16:04.529Z,5.55
2023-01-03T09:18:32.515Z,8.15
2023-01-03T09:21:03.158Z,7.20
2023-01-03T09:23:31.373Z,6.40
2023-01-03T09:25:59.609Z,10.38
2023-01-03T09:28:27.866Z,3.50
2023-01-03T09:30:55.986Z,12.82
2023-01-03T09:33:23.915Z,4.80
2023-01-03T09:35:54.193Z,8.48
2023-01-03T09:38:23.852Z,6.70
2023-01-03T09:41:00.201Z,9.07
2023-01-03T09:43:36.912Z,8.52
2023-01-03T09:46:06.572Z,5.72
2023-01-03T09:48:36.305Z,5.88
2023-01-03T09:51:25.910Z,5.35
2023-01-03T09:54:14.523Z,9.07
2023-01-03T09:56:59.913Z,7.05
2023-01-03T09:59:45.873Z,8.50
2023-01-03T10:02:49.459Z,7.63
2023-01-03T10:05:34.862Z,6.43
2023-01-03T10:08:18.233Z,3.95
2023-01-03T10:10:57.018Z,9.02
2023-01-03T10:13:35.200Z,9.43
2023-01-03T10:16:11.531Z,8.27
2023-01-03T10:18:58.012Z,9.02
2023-01-03T10:21:36.027Z,7.22
2023-01-03T10:24:18.198Z,4.25
2023-01-03T10:26:49.906Z,7.03
2023-01-03T10:29:19.262Z,8.52
2023-01-03T10:32:04.308Z,5.57
2023-01-03T10:34:32.318Z,6.88
2023-01-03T10:37:00.196Z,8.80
2023-01-03T10:39:31.670Z,5.68
2023-01-03T10:42:01.543Z,6.30
2023-01-03T10:44:31.610Z,9.18
2023-01-03T10:47:01.444Z,6.75
2023-01-03T10:49:30.873Z,10.77
2023-01-03T10:52:03.327Z,9.10
2023-01-03T10:54:45.232Z,7.43
2023-01-03T10:57:44.334Z,6.93
2023-01-03T11:00:27.773Z,9.80
2023-01-03T11:02:57.546Z,8.38
2023-01-03T11:05:27.890Z,7.15
2023-01-03T11:07:57.390Z,9.60
2023-01-03T11:10:33.494Z,10.63
2023-01-03T11:13:02.907Z,10.23
2023-01-03T11:15:39.551Z,9.93
2023-01-03T11:18:18.734Z,11.82
2023-01-03T11:20:54.230Z,12.13
2023-01-03T11:23:36.665Z,8.02
2023-01-03T11:26:13.804Z,11.77
2023-01-03T11:29:10.420Z,12.55
2023-01-03T11:31:51.728Z,10.50
2023-01-03T11:35:03.099Z,14.60
2023-01-03T11:37:35.084Z,11.95
2023-01-03T11:40:15.198Z,10.65
2023-01-03T11:42:58.373Z,10.48
2023-01-03T11:45:49.042Z,11.48
2023-01-03T11:48:41.901Z,8.60
2023-01-03T11:51:16.068Z,4.85
2023-01-03T11:53:56.890Z,10.30
2023-01-03T11:56:29.980Z,5.90
2023-01-03T11:59:32.502Z,9.23
2023-01-03T12:02:45.874Z,6.55
2023-01-03T12:05:44.431Z,10.27
2023-01-03T12:08:46.412Z,9.07
2023-01-03T12:11:26.233Z,12.07
2023-01-03T12:14:00.832Z,11.18
2023-01-03T12:16:34.213Z,8.95
2023-01-03T12:21:45.791Z,8.07
2023-01-03T12:24:19.180Z,11.43
2023-01-03T12:26:56.499Z,14.25
2023-01-03T12:29:27.558Z,7.75
2023-01-03T12:32:01.099Z,10.73
2023-01-03T12:34:35.658Z,11.07
2023-01-03T12:37:15.277Z,7.80
2023-01-03T12:39:55.263Z,10.18
2023-01-03T12:42:34.852Z,5.80
2023-01-03T12:45:20.425Z,8.65
2023-01-03T12:47:56.352Z,9.32
2023-01-03T12:50:30.885Z,9.98
2023-01-03T12:53:09.579Z,10.50
2023-01-03T12:55:49.310Z,14.05
2023-01-03T12:58:39.341Z,9.85
2023-01-03T13:01:14.125Z,8.52
2023-01-03T13:03:47.178Z,6.03
2023-01-03T13:06:18.620Z,12.57
2023-01-03T13:08:52.434Z,6.30
2023-01-03T13:11:26.048Z,7.40
2023-01-03T13:13:56.162Z,6.15
2023-01-03T13:16:46.149Z,7.63
2023-01-03T13:19:51.454Z,8.07
2023-01-03T13:22:49.054Z,8.85
2023-01-03T13:25:39.946Z,6.90
2023-01-03T13:28:24.808Z,6.70
2023-01-03T13:31:39.531Z,6.03
2023-01-03T13:34:33.203Z,5.50
2023-01-03T13:37:17.906Z,7.82
2023-01-03T13:40:39.261Z,8.55
2023-01-03T13:43:20.977Z,7.47
2023-01-03T13:45:55.461Z,5.70
2023-01-03T13:48:40.330Z,10.65
2023-01-03T13:51:37.944Z,9.90
2023-01-03T13:54:43.318Z,8.48
2023-01-03T13:57:38.215Z,5.93
2023-01-03T14:00:23.886Z,11.15
2023-01-03T14:03:18.741Z,7.20
2023-01-03T14:06:05.821Z,8.38
2023-01-03T14:09:04.347Z,9.10
2023-01-03T14:11:51.057Z,9.25
2023-01-03T14:14:23.625Z,10.43
2023-01-03T14:16:56.129Z,9.83
2023-01-03T14:19:27.829Z,4.23
2023-01-03T14:22:20.974Z,7.13
2023-01-03T14:24:51.836Z,6.65
2023-01-03T14:27:22.125Z,9.40
2023-01-03T14:29:53.389Z,5.93
2023-01-03T14:32:29.000Z,14.77
2023-01-03T14:35:01.861Z,8.50
2023-01-03T14:37:30.309Z,12.60
2023-01-03T14:40:00.043Z,8.95
2023-01-03T14:42:28.507Z,11.55
2023-01-03T14:44:57.933Z,8.57
2023-01-03T14:47:36.679Z,8.60
2023-01-03T14:50:05.748Z,9.65
2023-01-03T14:52:35.865Z,6.70
2023-01-03T14:55:08.352Z,8.25
2023-01-03T14:57:40.288Z,10.63
2023-01-03T15:00:12.831Z,15.07
2023-01-03T15:02:42.714Z,6.38
2023-01-03T15:05:26.413Z,7.75
2023-01-03T15:10:29.851Z,11.00
2023-01-03T15:13:04.180Z,10.95
2023-01-03T15:15:37.741Z,6.88
2023-01-03T15:18:09.891Z,9.43
2023-01-03T15:20:40.281Z,13.20
2023-01-03T15:23:09.312Z,11.77
2023-01-03T15:25:41.159Z,16.92
2023-01-03T15:28:26.288Z,9.73
2023-01-03T15:30:56.477Z,16.73
2023-01-03T15:33:34.517Z,11.80
2023-01-03T15:36:06.848Z,8.90
2023-01-03T15:38:37.168Z,9.00
2023-01-03T15:41:15.190Z,7.57
2023-01-03T15:43:42.572Z,10.68
2023-01-03T15:46:14.779Z,7.15
2023-01-03T15:48:53.087Z,18.70
2023-01-03T15:51:20.983Z,10.57
2023-01-03T15:53:48.946Z,11.90
2023-01-03T15:56:19.672Z,13.13
2023-01-03T15:58:48.426Z,12.77
2023-01-03T16:01:17.120Z,12.35
2023-01-03T16:03:47.620Z,12.02
2023-01-03T16:06:16.366Z,12.40
2023-01-03T16:08:44.525Z,11.40
2023-01-03T16:11:19.536Z,9.13
2023-01-03T16:13:52.202Z,12.75
2023-01-03T16:16:25.522Z,8.90
2023-01-03T16:18:55.617Z,11.10
2023-01-03T16:21:24.515Z,17.48
2023-01-03T16:23:52.654Z,14.68
2023-01-03T16:26:20.963Z,12.57
2023-01-03T16:28:48.940Z,21.98
2023-01-03T16:31:20.341Z,15.55
2023-01-03T16:33:50.692Z,12.63
2023-01-03T16:36:30.479Z,12.48
2023-01-03T16:38:58.943Z,15.63
2023-01-03T16:41:26.830Z,12.98
2023-01-03T16:43:54.694Z,12.40
2023-01-03T16:46:26.454Z,17.55
2023-01-03T16:48:57.239Z,16.92
2023-01-03T16:51:29.518Z,15.93
2023-01-03T16:53:59.302Z,19.58
2023-01-03T16:56:27.708Z,14.57
2023-01-03T16:58:55.667Z,16.75
2023-01-03T17:01:23.620Z,14.48
2023-01-03T17:03:51.606Z,15.73
2023-01-03T17:06:35.037Z,14.00
2023-01-03T17:09:09.776Z,17.17
2023-01-03T17:11:37.872Z,18.50
2023-01-03T17:14:05.819Z,16.52
2023-01-03T17:16:34.042Z,17.63
2023-01-03T17:19:01.979Z,18.38
2023-01-03T17:21:33.832Z,19.23
2023-01-03T17:24:05.381Z,18.10
2023-01-03T17:26:35.740Z,16.60
2023-01-03T17:29:06.648Z,15.80
2023-01-03T17:31:34.631Z,16.77
2023-01-03T17:34:13.219Z,19.60
2023-01-03T17:36:42.538Z,19.63
2023-01-03T17:39:12.055Z,21.90
2023-01-03T17:41:54.014Z,18.63
2023-01-03T17:44:21.998Z,18.88
2023-01-03T17:47:07.583Z,20.05
2023-01-03T17:49:35.469Z,21.77
2023-01-03T17:52:07.182Z,23.80
2023-01-03T17:54:37.830Z,22.40
2023-01-03T17:57:07.363Z,24.27
2023-01-03T17:59:35.544Z,30.73
2023-01-03T18:02:03.588Z,21.65
2023-01-03T18:04:57.737Z,21.92
2023-01-03T18:07:26.006Z,21.98
2023-01-03T18:09:56.912Z,30.17
2023-01-03T18:12:26.727Z,27.27
2023-01-03T18:14:54.949Z,20.33
2023-01-03T18:17:28.738Z,25.27
2023-01-03T18:19:57.772Z,27.33
2023-01-03T18:22:28.291Z,22.17
2023-01-03T18:24:58.362Z,23.23
2023-01-03T18:27:29.670Z,23.42
2023-01-03T18:29:57.829Z,22.67
2023-01-03T18:32:28.966Z,22.40
2023-01-03T18:34:57.978Z,26.75
2023-01-03T18:37:31.975Z,23.70
2023-01-03T18:39:59.949Z,21.67
2023-01-03T18:42:45.623Z,28.42
2023-01-03T18:45:14.922Z,28.33
2023-01-03T18:47:43.120Z,26.50
2023-01-03T18:50:19.376Z,26.05
2023-01-03T18:52:50.246Z,27.77
2023-01-03T18:55:22.369Z,32.42
2023-01-03T18:57:51.568Z,26.83
2023-01-03T19:00:21.708Z,32.58
2023-01-03T19:02:49.955Z,26.48
2023-01-03T19:05:18.800Z,32.35
2023-01-03T19:07:50.391Z,27.10
2023-01-03T19:10:22.157Z,36.45
2023-01-03T19:12:52.070Z,40.45
2023-01-03T19:15:21.816Z,29.75
2023-01-03T19:17:50.165Z,27.00
2023-01-03T19:20:23.203Z,28.77
2023-01-03T19:22:57.001Z,30.63
2023-01-03T19:25:27.646Z,26.15
2023-01-03T19:27:58.184Z,27.42
2023-01-03T19:30:37.293Z,27.23
2023-01-03T19:33:07.099Z,37.03
2023-01-03T19:35:35.131Z,26.65
2023-01-03T19:38:04.955Z,29.20
2023-01-03T19:40:35.533Z,25.20
2023-01-03T19:43:03.774Z,21.02
2023-01-03T19:45:34.134Z,28.25
2023-01-03T19:48:05.031Z,28.95
2023-01-03T19:50:34.788Z,31.40
2023-01-03T19:53:04.457Z,27.73
2023-01-03T19:55:34.158Z,26.08
2023-01-03T19:58:05.960Z,25.63
2023-01-03T20:00:34.029Z,30.33
2023-01-03T20:03:04.348Z,23.50
2023-01-03T20:05:36.072Z,26.30
2023-01-03T20:08:11.959Z,21.95
2023-01-03T20:10:42.452Z,27.35
2023-01-03T20:13:16.682Z,27.80
2023-01-03T20:15:46.434Z,30.35
2023-01-03T20:18:25.893Z,24.85
2023-01-03T20:20:55.822Z,28.65
2023-01-03T20:23:25.628Z,22.85
2023-01-03T20:25:53.639Z,23.30
2023-01-03T20:28:28.998Z,22.25
2023-01-03T20:30:57.865Z,23.63
2023-01-03T20:33:26.579Z,23.95
2023-01-03T20:36:19.943Z,26.48
2023-01-03T20:38:48.358Z,28.92
2023-01-03T20:41:18.725Z,22.08
2023-01-03T20:43:48.951Z,27.95
2023-01-03T20:46:20.381Z,26.73
2023-01-03T20:48:56.013Z,23.20
2023-01-03T20:51:25.085Z,25.58
2023-01-03T20:53:55.564Z,21.10
2023-01-03T20:56:24.012Z,24.83
2023-01-03T20:58:51.913Z,27.65
2023-01-03T21:01:19.973Z,25.85
2023-01-03T21:03:48.149Z,24.35
2023-01-03T21:06:18.775Z,20.75
2023-01-03T21:08:55.996Z,24.08
2023-01-03T21:11:27.184Z,19.73
2023-01-03T21:13:55.568Z,25.42
2023-01-03T21:16:33.143Z,17.50
2023-01-03T21:19:06.558Z,22.90
2023-01-03T21:24:02.796Z,20.27
2023-01-03T21:26:32.064Z,18.23
2023-01-03T21:29:00.321Z,21.58
2023-01-03T21:31:28.479Z,15.68
2023-01-03T21:33:56.630Z,17.50
2023-01-03T21:36:27.481Z,17.60
2023-01-03T21:38:55.435Z,16.23
2023-01-03T21:41:25.785Z,20.67
2023-01-03T21:43:57.034Z,18.75
2023-01-03T21:46:26.380Z,15.43
2023-01-03T21:48:55.109Z,14.43
2023-01-03T21:51:35.477Z,17.42
2023-01-03T21:54:09.862Z,16.58
2023-01-03T21:56:45.460Z,15.30
2023-01-03T21:59:16.576Z,12.57
2023-01-03T22:02:03.020Z,15.93
2023-01-03T22:04:31.364Z,14.77
2023-01-03T22:07:00.814Z,14.70
2023-01-03T22:09:46.853Z,15.20
2023-01-03T22:12:16.218Z,14.73
2023-01-03T22:14:46.531Z,17.35
2023-01-03T22:17:14.930Z,14.65
2023-01-03T22:19:43.021Z,13.75
2023-01-03T22:22:11.037Z,13.07
2023-01-03T22:24:38.951Z,13.63
2023-01-03T22:27:07.109Z,13.23
2023-01-03T22:29:34.993Z,14.40
2023-01-03T22:32:04.694Z,21.33
2023-01-03T22:34:32.599Z,18.58
2023-01-03T22:37:00.538Z,16.17
2023-01-03T22:39:28.448Z,16.60
2023-01-03T22:41:57.776Z,14.45
2023-01-03T22:44:25.694Z,15.43
2023-01-03T22:46:53.666Z,13.60
2023-01-03T22:49:23.105Z,11.63
2023-01-03T22:51:51.032Z,17.20
2023-01-03T22:54:19.033Z,11.02
2023-01-03T22:56:47.163Z,12.00
2023-01-03T22:59:15.968Z,13.60
2023-01-03T23:01:44.384Z,13.32
2023-01-03T23:04:12.736Z,18.35
2023-01-03T23:06:42.049Z,12.18
2023-01-03T23:09:09.971Z,14.50
2023-01-03T23:11:55.134Z,14.73
2023-01-03T23:14:24.355Z,8.18
2023-01-03T23:16:55.668Z,9.65
2023-01-03T23:19:25.872Z,11.68
2023-01-03T23:21:58.148Z,13.13
2023-01-03T23:24:26.111Z,12.50
2023-01-03T23:26:54.470Z,11.80
2023-01-03T23:29:22.535Z,13.68
2023-01-03T23:31:50.446Z,13.30
2023-01-03T23:34:18.350Z,11.57
2023-01-03T23:36:46.255Z,11.75
2023-01-03T23:39:17.500Z,14.07
2023-01-03T23:41:45.634Z,10.25
2023-01-03T23:44:13.884Z,11.23
2023-01-03T23:46:42.695Z,14.52
2023-01-03T23:49:12.259Z,13.82
2023-01-03T23:51:40.316Z,10.13
2023-01-03T23:54:08.278Z,15.25
2023-01-03T23:56:37.902Z,15.20
2023-01-03T23:59:05.919Z,12.07
